createdAt,value
2016-06-04T00:00:19.026Z,80.51
2016-06-04T00:01:18.857Z,81.15
2016-06-04T00:02:19.000Z,80.96
2016-06-04T00:03:18.987Z,81.72
2016-06-04T00:04:18.975Z,81.15
2016-06-04T00:05:18.961Z,80.51
2016-06-04T00:06:18.933Z,80.61
2016-06-04T00:07:18.920Z,80.04
2016-06-04T00:08:18.907Z,80.71
2016-06-04T00:09:18.894Z,80.22
2016-06-04T00:10:18.710Z,80.61
2016-06-04T00:11:19.509Z,82.1
2016-06-04T00:12:18.682Z,81.92
2016-06-04T00:13:18.827Z,82.01
2016-06-04T00:14:18.798Z,81.63
2016-06-04T00:15:18.785Z,81.92
2016-06-04T00:16:18.772Z,81.43
2016-06-04T00:17:18.759Z,82.01
2016-06-04T00:18:18.746Z,81.53
2016-06-04T00:19:18.733Z,82.1
2016-06-04T00:20:18.705Z,81.82
2016-06-04T00:21:18.692Z,81.82
2016-06-04T00:22:18.679Z,81.82
2016-06-04T00:23:18.728Z,81.43
2016-06-04T00:24:18.637Z,81.72
2016-06-04T00:25:18.625Z,81.72
2016-06-04T00:26:18.612Z,81.34
2016-06-04T00:27:18.598Z,80.66
2016-06-04T00:28:18.585Z,81.72
2016-06-04T00:29:18.573Z,81.92
2016-06-04T00:30:18.544Z,82.2
2016-06-04T00:31:18.531Z,82.01
2016-06-04T00:32:18.518Z,81.92
2016-06-04T00:33:18.489Z,81.53
2016-06-04T00:34:18.477Z,81.34
2016-06-04T00:35:18.464Z,81.43
2016-06-04T00:36:18.451Z,81.43
2016-06-04T00:37:18.438Z,81.82
2016-06-04T00:38:18.441Z,82.2
2016-06-04T00:39:18.397Z,81.72
2016-06-04T00:40:18.383Z,82.01
2016-06-04T00:41:18.215Z,82.2
2016-06-04T00:42:18.358Z,81.92
2016-06-04T00:43:18.329Z,82.01
2016-06-04T00:44:18.316Z,81.63
2016-06-04T00:45:18.303Z,81.53
2016-06-04T00:46:18.291Z,81.53
2016-06-04T00:47:18.262Z,81.63
2016-06-04T00:48:18.249Z,81.15
2016-06-04T00:49:18.236Z,80.8
2016-06-04T00:50:18.223Z,80.8
2016-06-04T00:51:18.210Z,81.28
2016-06-04T00:52:18.197Z,81.67
2016-06-04T00:53:18.185Z,81.43
2016-06-04T00:54:18.156Z,82.01
2016-06-04T00:55:18.142Z,83.16
2016-06-04T00:56:18.286Z,82.84
2016-06-04T00:57:18.101Z,83.41
2016-06-04T00:58:18.089Z,82.64
2016-06-04T00:59:18.087Z,82.59
2016-06-04T01:00:18.108Z,83.12
2016-06-04T01:01:18.128Z,82.84
2016-06-04T01:02:18.149Z,82.59
2016-06-04T01:03:18.154Z,82.4
2016-06-04T01:04:18.166Z,83.16
2016-06-04T01:05:18.166Z,83.16
2016-06-04T01:06:18.165Z,82.97
2016-06-04T01:07:18.148Z,83.16
2016-06-04T01:08:18.147Z,83.22
2016-06-04T01:09:18.127Z,83.89
2016-06-04T01:10:18.118Z,84.75
2016-06-04T01:11:18.125Z,83.8
2016-06-04T01:12:18.101Z,83.98
2016-06-04T01:13:18.092Z,83.8
2016-06-04T01:14:18.145Z,83.89
2016-06-04T01:15:18.071Z,83.7
2016-06-04T01:16:18.044Z,83.03
2016-06-04T01:17:18.032Z,82.97
2016-06-04T01:18:18.022Z,83.07
2016-06-04T01:19:18.009Z,82.4
2016-06-04T01:20:17.981Z,82.78
2016-06-04T01:21:17.969Z,83.03
2016-06-04T01:22:17.957Z,83.16
2016-06-04T01:23:17.960Z,83.03
2016-06-04T01:24:17.947Z,83.22
2016-06-04T01:25:17.919Z,82.78
2016-06-04T01:26:17.734Z,82.4
2016-06-04T01:27:17.862Z,82.4
2016-06-04T01:28:17.850Z,81.72
2016-06-04T01:29:17.837Z,82.01
2016-06-04T01:30:17.824Z,81.34
2016-06-04T01:31:17.812Z,81.34
2016-06-04T01:32:17.798Z,81.72
2016-06-04T01:33:17.770Z,82.49
2016-06-04T01:34:17.756Z,82.2
2016-06-04T01:35:17.745Z,82.49
2016-06-04T01:36:17.731Z,81.72
2016-06-04T01:37:17.703Z,82.1
2016-06-04T01:38:17.690Z,82.01
2016-06-04T01:39:17.676Z,81.72
2016-06-04T01:40:17.664Z,81.92
2016-06-04T01:41:17.495Z,82.1
2016-06-04T01:42:17.622Z,81.92
2016-06-04T01:43:17.609Z,82.01
2016-06-04T01:44:17.597Z,81.82
2016-06-04T01:45:17.583Z,81.92
2016-06-04T01:46:17.570Z,82.01
2016-06-04T01:47:17.558Z,81.15
2016-06-04T01:48:17.545Z,82.1
2016-06-04T01:49:17.516Z,82.49
2016-06-04T01:50:17.503Z,82.16
2016-06-04T01:51:17.474Z,82.84
2016-06-04T01:52:17.461Z,82.1
2016-06-04T01:53:17.449Z,81.72
2016-06-04T01:54:17.435Z,81.92
2016-06-04T01:55:17.423Z,82.59
2016-06-04T01:56:17.410Z,82.59
2016-06-04T01:57:17.382Z,82.49
2016-06-04T01:58:17.400Z,82.4
2016-06-04T01:59:17.355Z,82.01
2016-06-04T02:00:17.342Z,82.2
2016-06-04T02:01:17.315Z,81.34
2016-06-04T02:02:17.301Z,81.92
2016-06-04T02:03:17.287Z,81.92
2016-06-04T02:04:17.276Z,82.01
2016-06-04T02:05:17.246Z,81.43
2016-06-04T02:06:17.233Z,82.1
2016-06-04T02:07:17.221Z,82.2
2016-06-04T02:08:17.208Z,81.92
2016-06-04T02:09:17.194Z,82.01
2016-06-04T02:10:17.167Z,82.59
2016-06-04T02:11:17.576Z,82.07
2016-06-04T02:12:17.139Z,81.53
2016-06-04T02:13:17.128Z,81.72
2016-06-04T02:14:17.099Z,82.4
2016-06-04T02:15:17.086Z,82.45
2016-06-04T02:16:17.072Z,83.22
2016-06-04T02:17:17.060Z,83.03
2016-06-04T02:18:17.047Z,82.16
2016-06-04T02:19:17.034Z,82.45
2016-06-04T02:20:17.005Z,82.2
2016-06-04T02:21:16.993Z,81.68
2016-06-04T02:22:16.824Z,81.68
2016-06-04T02:23:16.967Z,81.68
2016-06-04T02:24:16.955Z,81.68
2016-06-04T02:25:16.925Z,81.68
2016-06-04T02:26:16.912Z,81.92
2016-06-04T02:27:16.899Z,81.72
2016-06-04T02:28:16.871Z,81.63
2016-06-04T02:29:16.857Z,81.05
2016-06-04T02:30:16.845Z,80.86
2016-06-04T02:31:16.816Z,80.86
2016-06-04T02:32:16.835Z,80.76
2016-06-04T02:33:16.790Z,80.38
2016-06-04T02:34:16.778Z,80.47
2016-06-04T02:35:16.765Z,80.57
2016-06-04T02:36:16.737Z,80.96
2016-06-04T02:37:16.723Z,81.43
2016-06-04T02:38:16.709Z,80.96
2016-06-04T02:39:16.698Z,81.53
2016-06-04T02:40:16.669Z,81.34
2016-06-04T02:41:17.328Z,81.43
2016-06-04T02:42:16.643Z,81.63
2016-06-04T02:43:16.630Z,81.53
2016-06-04T02:44:16.601Z,81.63
2016-06-04T02:45:16.604Z,80.96
2016-06-04T02:46:16.575Z,80.86
2016-06-04T02:47:16.563Z,80.86
2016-06-04T02:48:16.549Z,81.63
2016-06-04T02:49:16.521Z,81.34
2016-06-04T02:50:16.508Z,81.53
2016-06-04T02:51:16.495Z,81.4
2016-06-04T02:52:16.482Z,81.4
2016-06-04T02:53:16.469Z,81.53
2016-06-04T02:54:16.457Z,81.24
2016-06-04T02:55:16.444Z,81.53
2016-06-04T02:56:16.899Z,81.43
2016-06-04T02:57:16.402Z,81.97
2016-06-04T02:58:16.373Z,82.45
2016-06-04T02:59:16.360Z,81.68
2016-06-04T03:00:16.348Z,82.16
2016-06-04T03:01:16.335Z,81.97
2016-06-04T03:02:16.321Z,81.68
2016-06-04T03:03:16.309Z,81.4
2016-06-04T03:04:16.280Z,81.92
2016-06-04T03:05:16.268Z,81.43
2016-06-04T03:06:16.254Z,81.53
2016-06-04T03:07:16.242Z,81.97
2016-06-04T03:08:16.213Z,81.97
2016-06-04T03:09:16.200Z,81.68
2016-06-04T03:10:16.187Z,81.68
2016-06-04T03:11:16.173Z,81.4
2016-06-04T03:12:16.145Z,81.4
2016-06-04T03:13:16.133Z,81.72
2016-06-04T03:14:16.120Z,81.49
2016-06-04T03:15:16.091Z,81.49
2016-06-04T03:16:16.094Z,81.4
2016-06-04T03:17:16.081Z,81.34
2016-06-04T03:18:16.052Z,81.3
2016-06-04T03:19:16.040Z,81.4
2016-06-04T03:20:16.027Z,81.78
2016-06-04T03:21:16.013Z,81.68
2016-06-04T03:22:16.298Z,81.97
2016-06-04T03:23:15.988Z,81.49
2016-06-04T03:24:15.975Z,81.49
2016-06-04T03:25:15.930Z,81.43
2016-06-04T03:26:16.339Z,81.4
2016-06-04T03:27:15.905Z,81.05
2016-06-04T03:28:15.908Z,80.47
2016-06-04T03:29:15.879Z,80.86
2016-06-04T03:30:15.866Z,82.54
2016-06-04T03:31:15.853Z,82.84
2016-06-04T03:32:15.825Z,82.84
2016-06-04T03:33:15.811Z,82.79
2016-06-04T03:34:15.783Z,83.18
2016-06-04T03:35:15.770Z,82.93
2016-06-04T03:36:15.757Z,82.35
2016-06-04T03:37:15.728Z,82.16
2016-06-04T03:38:15.715Z,81.87
2016-06-04T03:39:15.703Z,82.16
2016-06-04T03:40:15.690Z,82.16
2016-06-04T03:41:16.239Z,81.59
2016-06-04T03:42:15.664Z,81.87
2016-06-04T03:43:15.666Z,82.07
2016-06-04T03:44:15.622Z,81.87
2016-06-04T03:45:15.609Z,82.07
2016-06-04T03:46:15.612Z,81.49
2016-06-04T03:47:15.584Z,82.64
2016-06-04T03:48:15.555Z,83.08
2016-06-04T03:49:15.542Z,83.27
2016-06-04T03:50:15.528Z,82.79
2016-06-04T03:51:15.500Z,83.37
2016-06-04T03:52:15.487Z,83.08
2016-06-04T03:53:15.475Z,82.64
2016-06-04T03:54:15.446Z,82.64
2016-06-04T03:55:15.433Z,83.6
2016-06-04T03:56:15.279Z,83.37
2016-06-04T03:57:15.407Z,83.18
2016-06-04T03:58:15.394Z,83.27
2016-06-04T03:59:15.382Z,83.12
2016-06-04T04:00:15.352Z,82.54
2016-06-04T04:01:15.340Z,82.64
2016-06-04T04:02:15.155Z,83.31
2016-06-04T04:03:15.314Z,82.74
2016-06-04T04:04:15.285Z,82.64
2016-06-04T04:05:15.288Z,82.45
2016-06-04T04:06:15.276Z,82.93
2016-06-04T04:07:15.262Z,82.98
2016-06-04T04:08:15.234Z,82.98
2016-06-04T04:09:15.220Z,82.98
2016-06-04T04:10:15.192Z,83.03
2016-06-04T04:11:15.179Z,82.84
2016-06-04T04:12:15.167Z,82.35
2016-06-04T04:13:15.137Z,82.07
2016-06-04T04:14:15.125Z,81.97
2016-06-04T04:15:15.112Z,81.87
2016-06-04T04:16:15.098Z,82.07
2016-06-04T04:17:15.086Z,81.87
2016-06-04T04:18:15.058Z,81.68
2016-06-04T04:19:15.060Z,81.68
2016-06-04T04:20:15.031Z,81.3
2016-06-04T04:21:15.003Z,81.87
2016-06-04T04:22:14.990Z,81.4
2016-06-04T04:23:14.977Z,81.59
2016-06-04T04:24:14.949Z,81.3
2016-06-04T04:25:14.936Z,81.53
2016-06-04T04:26:16.689Z,81.59
2016-06-04T04:27:14.910Z,81.53
2016-06-04T04:28:14.897Z,81.24
2016-06-04T04:29:14.869Z,81.53
2016-06-04T04:30:14.855Z,81.01
2016-06-04T04:31:14.842Z,80.76
2016-06-04T04:32:14.829Z,81.2
2016-06-04T04:33:14.816Z,80.91
2016-06-04T04:34:14.788Z,80.66
2016-06-04T04:35:14.774Z,80.76
2016-06-04T04:36:14.762Z,81.53
2016-06-04T04:37:14.749Z,81.49
2016-06-04T04:38:14.720Z,81.1
2016-06-04T04:39:14.552Z,80.76
2016-06-04T04:40:14.695Z,80.47
2016-06-04T04:41:14.916Z,80.19
2016-06-04T04:42:14.653Z,79.99
2016-06-04T04:43:14.640Z,79.99
2016-06-04T04:44:14.628Z,79.32
2016-06-04T04:45:14.615Z,79.22
2016-06-04T04:46:14.601Z,78.55
2016-06-04T04:47:14.573Z,79.32
2016-06-04T04:48:14.559Z,79.13
2016-06-04T04:49:14.391Z,79.61
2016-06-04T04:50:14.534Z,79.42
2016-06-04T04:51:14.522Z,79.32
2016-06-04T04:52:14.492Z,79.03
2016-06-04T04:53:14.480Z,78.75
2016-06-04T04:54:14.467Z,78.94
2016-06-04T04:55:14.454Z,78.27
2016-06-04T04:56:14.660Z,77.98
2016-06-04T04:57:14.427Z,77.92
2016-06-04T04:58:14.416Z,77.88
2016-06-04T04:59:14.386Z,77.06
2016-06-04T05:00:14.357Z,76.96
2016-06-04T05:01:14.344Z,77.34
2016-06-04T05:02:14.347Z,76.86
2016-06-04T05:03:14.319Z,77.15
2016-06-04T05:04:14.307Z,77.44
2016-06-04T05:05:14.277Z,76.82
2016-06-04T05:06:14.265Z,78.08
2016-06-04T05:07:14.252Z,78.99
2016-06-04T05:08:14.270Z,77.88
2016-06-04T05:09:14.226Z,77.98
2016-06-04T05:10:14.198Z,77.4
2016-06-04T05:11:14.387Z,77.4
2016-06-04T05:12:14.171Z,77.01
2016-06-04T05:13:14.159Z,77.06
2016-06-04T05:14:14.130Z,77.25
2016-06-04T05:15:14.132Z,76.67
2016-06-04T05:16:14.103Z,76.67
2016-06-04T05:17:14.092Z,76.39
2016-06-04T05:18:14.078Z,76
2016-06-04T05:19:14.050Z,76.48
2016-06-04T05:20:14.037Z,76.67
2016-06-04T05:21:14.024Z,76.96
2016-06-04T05:22:14.011Z,77.34
2016-06-04T05:23:13.997Z,76.29
2016-06-04T05:24:13.986Z,76.39
2016-06-04T05:25:13.956Z,77.53
2016-06-04T05:26:14.334Z,78.17
2016-06-04T05:27:13.930Z,79.13
2016-06-04T05:28:13.902Z,79.13
2016-06-04T05:29:13.905Z,77.78
2016-06-04T05:30:13.891Z,77.4
2016-06-04T05:31:13.863Z,77.34
2016-06-04T05:32:13.850Z,76.48
2016-06-04T05:33:13.838Z,76.67
2016-06-04T05:34:13.808Z,77.06
2016-06-04T05:35:13.796Z,77.63
2016-06-04T05:36:13.782Z,76.96
2016-06-04T05:37:13.771Z,76.96
2016-06-04T05:38:13.757Z,76.96
2016-06-04T05:39:13.744Z,78.02
2016-06-04T05:40:13.716Z,78.3
2016-06-04T05:41:14.734Z,78.98
2016-06-04T05:42:13.674Z,78.59
2016-06-04T05:43:13.676Z,78.4
2016-06-04T05:44:13.664Z,78.4
2016-06-04T05:45:13.635Z,78.59
2016-06-04T05:46:13.622Z,78.69
2016-06-04T05:47:13.593Z,78.69
2016-06-04T05:48:13.581Z,78.98
2016-06-04T05:49:13.568Z,78.78
2016-06-04T05:50:13.648Z,79.07
2016-06-04T05:51:13.542Z,78.78
2016-06-04T05:52:13.529Z,78.88
2016-06-04T05:53:13.500Z,79.07
2016-06-04T05:54:13.487Z,78.88
2016-06-04T05:55:13.475Z,79.46
2016-06-04T05:56:14.008Z,78.98
2016-06-04T05:57:13.277Z,79.65
2016-06-04T05:58:13.436Z,79.55
2016-06-04T05:59:13.408Z,79.07
2016-06-04T06:00:13.394Z,79.17
2016-06-04T06:01:13.366Z,78.88
2016-06-04T06:02:13.352Z,78.06
2016-06-04T06:03:13.341Z,78.83
2016-06-04T06:04:13.327Z,79.11
2016-06-04T06:05:13.314Z,79.65
2016-06-04T06:06:13.301Z,79.46
2016-06-04T06:07:13.272Z,79.11
2016-06-04T06:08:13.259Z,78.88
2016-06-04T06:09:13.262Z,79.4
2016-06-04T06:10:13.234Z,79.17
2016-06-04T06:11:13.237Z,78.83
2016-06-04T06:12:13.207Z,79.79
2016-06-04T06:13:13.179Z,79.65
2016-06-04T06:14:13.166Z,79.46
2016-06-04T06:15:13.154Z,79.94
2016-06-04T06:16:13.125Z,79.94
2016-06-04T06:17:13.128Z,80.04
2016-06-04T06:18:13.099Z,80.42
2016-06-04T06:19:13.086Z,80.71
2016-06-04T06:20:13.073Z,80.13
2016-06-04T06:21:13.045Z,80.61
2016-06-04T06:22:13.031Z,80.32
2016-06-04T06:23:13.019Z,80.22
2016-06-04T06:24:13.005Z,80.42
2016-06-04T06:25:12.992Z,80.04
2016-06-04T06:26:12.965Z,80.13
2016-06-04T06:27:12.951Z,79.75
2016-06-04T06:28:12.953Z,80.04
2016-06-04T06:29:12.925Z,80.32
2016-06-04T06:30:12.913Z,80.51
2016-06-04T06:31:12.883Z,79.84
2016-06-04T06:32:12.886Z,79.75
2016-06-04T06:33:12.874Z,79.55
2016-06-04T06:34:12.845Z,79.94
2016-06-04T06:35:12.832Z,80.61
2016-06-04T06:36:12.804Z,80.42
2016-06-04T06:37:12.791Z,80.04
2016-06-04T06:38:12.777Z,80.42
2016-06-04T06:39:12.765Z,80.04
2016-06-04T06:40:12.752Z,80.32
2016-06-04T06:41:12.863Z,81.76
2016-06-04T06:42:12.710Z,81.34
2016-06-04T06:43:12.698Z,81.34
2016-06-04T06:44:12.684Z,81.15
2016-06-04T06:45:12.656Z,80.61
2016-06-04T06:46:12.643Z,80.32
2016-06-04T06:47:12.630Z,80.32
2016-06-04T06:48:12.632Z,79.65
2016-06-04T06:49:12.620Z,79.79
2016-06-04T06:50:12.575Z,79.21
2016-06-04T06:51:12.563Z,79.65
2016-06-04T06:52:12.550Z,79.94
2016-06-04T06:53:12.537Z,79.75
2016-06-04T06:54:12.523Z,79.5
2016-06-04T06:55:12.511Z,79.65
2016-06-04T06:56:12.639Z,80.04
2016-06-04T06:57:12.485Z,79.75
2016-06-04T06:58:12.456Z,79.6
2016-06-04T06:59:12.444Z,79.65
2016-06-04T07:00:12.431Z,79.3
2016-06-04T07:01:12.418Z,79.4
2016-06-04T07:02:12.389Z,79.11
2016-06-04T07:03:12.392Z,79.3
2016-06-04T07:04:12.363Z,79.21
2016-06-04T07:05:12.335Z,79.21
2016-06-04T07:06:12.338Z,79.21
2016-06-04T07:07:12.309Z,79.6
2016-06-04T07:08:12.296Z,79.02
2016-06-04T07:09:12.267Z,79.02
2016-06-04T07:10:12.270Z,78.63
2016-06-04T07:11:13.179Z,79.88
2016-06-04T07:12:12.228Z,79.11
2016-06-04T07:13:12.215Z,78.73
2016-06-04T07:14:12.219Z,79.11
2016-06-04T07:15:12.190Z,78.86
2016-06-04T07:16:12.161Z,79.15
2016-06-04T07:17:12.148Z,79.5
2016-06-04T07:18:12.135Z,79.02
2016-06-04T07:19:12.123Z,80.17
2016-06-04T07:20:12.093Z,79.75
2016-06-04T07:21:12.081Z,79.79
2016-06-04T07:22:11.912Z,79.88
2016-06-04T07:23:12.056Z,79.88
2016-06-04T07:24:12.042Z,79.4
2016-06-04T07:25:12.013Z,79.3
2016-06-04T07:26:12.376Z,79.02
2016-06-04T07:27:11.987Z,79.11
2016-06-04T07:28:11.975Z,79.05
2016-06-04T07:29:11.962Z,78.77
2016-06-04T07:30:11.949Z,78.09
2016-06-04T07:31:11.936Z,78.58
2016-06-04T07:32:11.922Z,79.05
2016-06-04T07:33:11.894Z,79.69
2016-06-04T07:34:11.881Z,80.27
2016-06-04T07:35:11.869Z,80.55
2016-06-04T07:36:11.840Z,80.94
2016-06-04T07:37:11.827Z,80.61
2016-06-04T07:38:11.814Z,80.07
2016-06-04T07:39:11.802Z,80.65
2016-06-04T07:40:11.772Z,80.94
2016-06-04T07:41:11.760Z,80.61
2016-06-04T07:42:11.747Z,80.32
2016-06-04T07:43:11.735Z,80.17
2016-06-04T07:44:11.721Z,80.07
2016-06-04T07:45:11.707Z,80.07
2016-06-04T07:46:11.679Z,79.79
2016-06-04T07:47:11.682Z,79.69
2016-06-04T07:48:11.654Z,79.6
2016-06-04T07:49:11.640Z,79.3
2016-06-04T07:50:11.628Z,79.3
2016-06-04T07:51:11.615Z,79.69
2016-06-04T07:52:11.586Z,79.79
2016-06-04T07:53:11.573Z,79.4
2016-06-04T07:54:11.700Z,79.21
2016-06-04T07:55:11.532Z,78.86
2016-06-04T07:56:12.394Z,78.96
2016-06-04T07:57:11.506Z,78.19
2016-06-04T07:58:11.493Z,78.19
2016-06-04T07:59:11.480Z,78
2016-06-04T08:00:11.483Z,77.75
2016-06-04T08:01:11.454Z,77.84
2016-06-04T08:02:11.425Z,78.48
2016-06-04T08:03:11.413Z,79.05
2016-06-04T08:04:11.400Z,79.05
2016-06-04T08:05:11.386Z,78.67
2016-06-04T08:06:11.217Z,78.48
2016-06-04T08:07:11.361Z,78
2016-06-04T08:08:11.333Z,78.86
2016-06-04T08:09:11.335Z,79.35
2016-06-04T08:10:11.307Z,79.25
2016-06-04T08:11:11.137Z,79.35
2016-06-04T08:12:11.280Z,79.25
2016-06-04T08:13:11.268Z,78.77
2016-06-04T08:14:11.254Z,77.81
2016-06-04T08:15:11.227Z,78.09
2016-06-04T08:16:11.213Z,77.9
2016-06-04T08:17:11.201Z,78.28
2016-06-04T08:18:11.171Z,78.77
2016-06-04T08:19:11.159Z,78.77
2016-06-04T08:20:11.162Z,78.38
2016-06-04T08:21:11.132Z,78
2016-06-04T08:22:11.120Z,77.51
2016-06-04T08:23:10.950Z,78.33
2016-06-04T08:24:11.095Z,78.67
2016-06-04T08:25:11.065Z,78.58
2016-06-04T08:26:11.053Z,78.09
2016-06-04T08:27:11.040Z,77.71
2016-06-04T08:28:11.026Z,77.56
2016-06-04T08:29:11.014Z,76.59
2016-06-04T08:30:11.000Z,76.88
2016-06-04T08:31:10.972Z,76.69
2016-06-04T08:32:10.959Z,76.4
2016-06-04T08:33:10.946Z,76.4
2016-06-04T08:34:10.934Z,76.31
2016-06-04T08:35:10.920Z,76.4
2016-06-04T08:36:11.219Z,76.5
2016-06-04T08:37:10.894Z,75.57
2016-06-04T08:38:10.866Z,75.86
2016-06-04T08:39:12.946Z,75.57
2016-06-04T08:40:10.840Z,75.96
2016-06-04T08:41:10.827Z,75.09
2016-06-04T08:42:10.657Z,75.67
2016-06-04T08:43:10.801Z,75.19
2016-06-04T08:44:10.789Z,74.99
2016-06-04T08:45:10.776Z,75.19
2016-06-04T08:46:10.763Z,75.09
2016-06-04T08:47:10.734Z,75.19
2016-06-04T08:48:10.721Z,74.36
2016-06-04T08:49:10.708Z,74.07
2016-06-04T08:50:10.695Z,73.97
2016-06-04T08:51:10.682Z,73.78
2016-06-04T08:52:10.670Z,73.97
2016-06-04T08:53:10.640Z,74.16
2016-06-04T08:54:10.628Z,74.55
2016-06-04T08:55:10.615Z,73.88
2016-06-04T08:56:10.601Z,74.45
2016-06-04T08:57:10.573Z,73.3
2016-06-04T08:58:10.420Z,73.53
2016-06-04T08:59:10.563Z,72.85
2016-06-04T09:00:10.534Z,73.43
2016-06-04T09:01:10.522Z,73.49
2016-06-04T09:02:10.509Z,73.49
2016-06-04T09:03:10.511Z,73.1
2016-06-04T09:04:10.483Z,72.81
2016-06-04T09:05:10.470Z,72.05
2016-06-04T09:06:10.458Z,72.95
2016-06-04T09:07:10.444Z,72.14
2016-06-04T09:08:10.416Z,72.47
2016-06-04T09:09:10.419Z,72.37
2016-06-04T09:10:10.389Z,71.89
2016-06-04T09:11:10.377Z,71.73
2016-06-04T09:12:10.364Z,71.89
2016-06-04T09:13:10.194Z,71.89
2016-06-04T09:14:10.182Z,73.53
2016-06-04T09:15:10.168Z,73.53
2016-06-04T09:16:10.313Z,72.41
2016-06-04T09:17:10.299Z,72.41
2016-06-04T09:18:10.145Z,72.12
2016-06-04T09:19:10.258Z,72.34
2016-06-04T09:20:10.245Z,72.41
2016-06-04T09:21:10.232Z,72.34
2016-06-04T09:22:10.219Z,72.12
2016-06-04T09:23:10.206Z,71.96
2016-06-04T09:24:10.193Z,71.96
2016-06-04T09:25:10.180Z,71.48
2016-06-04T09:26:10.167Z,72.73
2016-06-04T09:27:10.170Z,72.34
2016-06-04T09:28:10.234Z,71.86
2016-06-04T09:29:10.129Z,71.96
2016-06-04T09:30:10.115Z,71.58
2016-06-04T09:31:10.102Z,71.96
2016-06-04T09:32:10.089Z,71.48
2016-06-04T09:33:10.062Z,72.09
2016-06-04T09:34:10.048Z,73.41
2016-06-04T09:35:10.036Z,72.54
2016-06-04T09:36:10.022Z,72.54
2016-06-04T09:37:10.009Z,72.44
2016-06-04T09:38:09.997Z,72.44
2016-06-04T09:39:09.983Z,72.34
2016-06-04T09:40:09.970Z,71.42
2016-06-04T09:41:09.958Z,71.8
2016-06-04T09:42:09.945Z,72.25
2016-06-04T09:43:09.932Z,71.19
2016-06-04T09:44:09.935Z,71.32
2016-06-04T09:45:09.905Z,72.44
2016-06-04T09:46:09.893Z,73.69
2016-06-04T09:47:09.864Z,74.05
2016-06-04T09:48:09.851Z,73.43
2016-06-04T09:49:09.854Z,73.85
2016-06-04T09:50:09.826Z,73.95
2016-06-04T09:51:09.829Z,74.3
2016-06-04T09:52:09.799Z,74.49
2016-06-04T09:53:09.801Z,75.16
2016-06-04T09:54:09.774Z,75.26
2016-06-04T09:55:09.760Z,74.3
2016-06-04T09:56:09.748Z,75.2
2016-06-04T09:57:09.734Z,74.97
2016-06-04T09:58:09.848Z,74.2
2016-06-04T09:59:09.709Z,74.1
2016-06-04T10:00:09.696Z,74.3
2016-06-04T10:01:11.651Z,75.01
2016-06-04T10:02:09.670Z,74.2
2016-06-04T10:03:09.657Z,73.75
2016-06-04T10:04:09.645Z,73.95
2016-06-04T10:05:09.648Z,74.05
2016-06-04T10:06:10.304Z,73.75
2016-06-04T10:07:09.678Z,73.95
2016-06-04T10:08:09.678Z,72.89
2016-06-04T10:09:09.692Z,72.34
2016-06-04T10:10:09.695Z,72.54
2016-06-04T10:11:09.865Z,72.73
2016-06-04T10:12:09.690Z,71.9
2016-06-04T10:13:09.703Z,72.09
2016-06-04T10:14:09.918Z,71.32
2016-06-04T10:15:09.677Z,71.7
2016-06-04T10:16:09.668Z,71.12
2016-06-04T10:17:09.657Z,70.48
2016-06-04T10:18:09.647Z,71.06
2016-06-04T10:19:09.639Z,71.16
2016-06-04T10:20:09.628Z,71.06
2016-06-04T10:21:09.617Z,72.38
2016-06-04T10:22:09.605Z,71.9
2016-06-04T10:23:09.609Z,72.58
2016-06-04T10:24:09.583Z,72.48
2016-06-04T10:25:09.570Z,72.54
2016-06-04T10:26:09.557Z,72.19
2016-06-04T10:27:09.546Z,72.48
2016-06-04T10:28:11.017Z,72.48
2016-06-04T10:29:09.849Z,71.61
2016-06-04T10:30:09.491Z,72.09
2016-06-04T10:31:09.479Z,72.28
2016-06-04T10:32:09.497Z,72.58
2016-06-04T10:33:09.468Z,73.06
2016-06-04T10:34:09.455Z,72.77
2016-06-04T10:35:09.443Z,72.77
2016-06-04T10:36:09.429Z,72.28
2016-06-04T10:37:09.401Z,71.9
2016-06-04T10:38:09.388Z,71.8
2016-06-04T10:39:09.376Z,71.8
2016-06-04T10:40:09.378Z,71.7
2016-06-04T10:41:09.365Z,72.09
2016-06-04T10:42:09.368Z,71.9
2016-06-04T10:43:09.980Z,71.9
2016-06-04T10:44:09.842Z,71.36
2016-06-04T10:45:09.314Z,70.97
2016-06-04T10:46:09.284Z,71.26
2016-06-04T10:47:09.304Z,71.94
2016-06-04T10:48:09.275Z,72
2016-06-04T10:49:09.261Z,72
2016-06-04T10:50:09.233Z,72.67
2016-06-04T10:51:09.236Z,71.61
2016-06-04T10:52:09.208Z,70.48
2016-06-04T10:53:09.210Z,70.78
2016-06-04T10:54:09.213Z,70.29
2016-06-04T10:55:09.183Z,70.78
2016-06-04T10:56:09.155Z,70.1
2016-06-04T10:57:09.158Z,70.39
2016-06-04T10:58:09.707Z,69.65
2016-06-04T10:59:09.133Z,69.56
2016-06-04T11:00:09.119Z,69.84
2016-06-04T11:01:09.107Z,68.59
2016-06-04T11:02:09.094Z,67.75
2016-06-04T11:03:09.081Z,67.75
2016-06-04T11:04:09.068Z,67.21
2016-06-04T11:05:09.055Z,67.3
2016-06-04T11:06:09.104Z,67.69
2016-06-04T11:07:09.029Z,68.14
2016-06-04T11:08:09.016Z,69.07
2016-06-04T11:09:09.003Z,67.75
2016-06-04T11:10:08.990Z,66.98
2016-06-04T11:11:08.976Z,67.88
2016-06-04T11:12:08.980Z,66.78
2016-06-04T11:13:08.982Z,66.53
2016-06-04T11:14:08.954Z,66.82
2016-06-04T11:15:08.923Z,66.24
2016-06-04T11:16:08.926Z,65.75
2016-06-04T11:17:08.913Z,64.43
2016-06-04T11:18:08.884Z,64.66
2016-06-04T11:19:08.887Z,64.56
2016-06-04T11:20:08.859Z,64.37
2016-06-04T11:21:08.845Z,62.72
2016-06-04T11:22:09.020Z,63.53
2016-06-04T11:23:08.819Z,63.14
2016-06-04T11:24:08.822Z,61.98
2016-06-04T11:25:08.794Z,63.37
2016-06-04T11:26:08.797Z,63.89
2016-06-04T11:27:09.033Z,63.21
2016-06-04T11:28:08.942Z,62.75
2016-06-04T11:29:08.758Z,63.14
2016-06-04T11:30:08.745Z,63.21
2016-06-04T11:31:08.747Z,64.01
2016-06-04T11:32:08.719Z,64.27
2016-06-04T11:33:08.705Z,64.75
2016-06-04T11:34:08.693Z,65.5
2016-06-04T11:35:08.696Z,66.08
2016-06-04T11:36:08.667Z,65.69
2016-06-04T11:37:08.685Z,64.92
2016-06-04T11:38:08.656Z,64.27
2016-06-04T11:39:08.644Z,64.17
2016-06-04T11:40:08.630Z,64.66
2016-06-04T11:41:09.102Z,65.4
2016-06-04T11:42:08.635Z,63.59
2016-06-04T11:43:08.607Z,63.14
2016-06-04T11:44:08.594Z,61.88
2016-06-04T11:45:08.598Z,59.91
2016-06-04T11:46:08.584Z,58.97
2016-06-04T11:47:08.586Z,61.49
2016-06-04T11:48:08.637Z,60.75
2016-06-04T11:49:08.562Z,59.71
2016-06-04T11:50:08.564Z,59.45
2016-06-04T11:51:08.395Z,60.32
2016-06-04T11:52:08.554Z,61.26
2016-06-04T11:53:08.556Z,62.98
2016-06-04T11:54:08.543Z,63.95
2016-06-04T11:55:08.546Z,65.53
2016-06-04T11:56:08.548Z,65.5
2016-06-04T11:57:08.535Z,64.56
2016-06-04T11:58:08.523Z,63.04
2016-06-04T11:59:08.369Z,61.72
2016-06-04T12:00:08.513Z,61.36
2016-06-04T12:01:08.516Z,60.49
2016-06-04T12:02:08.502Z,59.26
2016-06-04T12:03:08.505Z,58.8
2016-06-04T12:04:08.507Z,58.05
2016-06-04T12:05:08.495Z,56.43
2016-06-04T12:06:08.497Z,56.46
2016-06-04T12:07:08.485Z,57.04
2016-06-04T12:08:08.487Z,57.33
2016-06-04T12:09:08.475Z,57.31
2016-06-04T12:10:08.477Z,58.47
2016-06-04T12:11:08.793Z,60
2016-06-04T12:12:08.326Z,61.19
2016-06-04T12:13:08.485Z,63.1
2016-06-04T12:14:08.472Z,64.2
2016-06-04T12:15:08.474Z,62.56
2016-06-04T12:16:08.462Z,62.72
2016-06-04T12:17:08.449Z,61.65
2016-06-04T12:18:08.451Z,63.01
2016-06-04T12:19:08.439Z,62.98
2016-06-04T12:20:08.457Z,63.4
2016-06-04T12:21:08.445Z,62.46
2016-06-04T12:22:08.431Z,62.62
2016-06-04T12:23:08.434Z,61.07
2016-06-04T12:24:08.420Z,60.91
2016-06-04T12:25:08.408Z,60.52
2016-06-04T12:26:08.411Z,61.49
2016-06-04T12:27:08.397Z,60
2016-06-04T12:28:08.245Z,60.35
2016-06-04T12:29:08.403Z,59.36
2016-06-04T12:30:08.390Z,58.37
2016-06-04T12:31:08.377Z,58.44
2016-06-04T12:32:08.380Z,59.12
2016-06-04T12:33:08.367Z,61.16
2016-06-04T12:34:08.354Z,62.52
2016-06-04T12:35:08.372Z,62.72
2016-06-04T12:36:08.360Z,64.43
2016-06-04T12:37:08.347Z,65.08
2016-06-04T12:38:08.333Z,63.92
2016-06-04T12:39:08.336Z,62.62
2016-06-04T12:40:08.339Z,61.17
2016-06-04T12:41:08.326Z,62.55
2016-06-04T12:42:08.532Z,63.88
2016-06-04T12:43:08.316Z,66.43
2016-06-04T12:44:08.302Z,66.75
2016-06-04T12:45:08.305Z,66.75
2016-06-04T12:46:08.307Z,66.69
2016-06-04T12:47:08.280Z,67.43
2016-06-04T12:48:08.282Z,69.08
2016-06-04T12:49:08.270Z,68.95
2016-06-04T12:50:08.287Z,69.04
2016-06-04T12:51:08.259Z,69.04
2016-06-04T12:52:08.246Z,69.49
2016-06-04T12:53:08.233Z,69.78
2016-06-04T12:54:08.220Z,69.78
2016-06-04T12:55:08.223Z,69.4
2016-06-04T12:56:08.289Z,69.68